Northville, Connecticut
Current Conditions -  °F | °C
As of 12:55 AM on Sunday 23 Nov 2014 (Local Time) from KOXC Reporting Station
Clear Clear  
Wind Chill: 35°   Ceiling: Unl
Heat Index: 39°   Visibility: 10mi
Dew Point: 18°   Wind: 6mph
Humidity: 42%   Direction: 250°WSW
Pressure: 30.15"   Gusts: NA
Location:  41.6202°N, 73.4053°W
Report Text: KOXC 230555Z 25005KT 10SM CLR 04/M08 A3015 RMK AO1 10040 20030 57007
Loading
Personal Weather Stations






























Interactive Weather Map New forecast layout! Learn more

10-Day Weather Forecast

Advertisements
Track Severe Weather on mobile